Terminal Aerodrome Forecast
Issued by NWS

Home | Current Version | Previous Version | Text Only | Print | Product List | Glossary On
Versions: 1 2 3 4 5 6 7 8 9 10 11 12 13 14 15 16 17 18 19 20 21
000
FTUS41 KCAR 251121
TAFFVE
TAF
KFVE 251121Z 2512/2612 24007KT P6SM BKN100
     FM251500 25012G20KT P6SM SCT080 BKN250
     FM260000 24007KT P6SM OVC070
     FM260300 20005KT P6SM -SHRA OVC050
     FM260700 VRB03KT 5SM -SHRA OVC015=

USA.gov is the U.S. government's official web portal to all federal, state and local government web resources and services.